• Join FlightAware (Why Join?)
  • Login
  • US Flag 
07:18AM EDT


 

Airport Tracker/Info


-or-


 

Live Flight TrackerFlight Track Log ✈ G-VROS ✈ 28-Apr-2012 ✈ EGCC / MAN - KMCO

Flight Track Log - Related Links

Times and Time Zones

All times are in EDT time to prevent confusion due to time zone crossing. See the G-VROS flight status page for this flight to view local times or setup timezone preferences in your user account.

Time Position Orientation Groundspeed Altitude Reporting Facility
EDT Latitude Longitude Course Direction KTS MPH feet Rate Location/Type
09:15AM 53.3584 -2.3255 281° West  Level FlightAware Approximate
09:16AM 53.3693 -2.5292 281° West  Level FlightAware Approximate
09:17AM 53.3871 -2.7318 281° West  Level FlightAware Approximate
09:18AM 53.4000 -2.9351 281° West  Level FlightAware Approximate
09:19AM 53.4220 -3.1364 281° West  Level FlightAware Approximate
09:20AM 53.4434 -3.3381 280° West  Level FlightAware Approximate
09:21AM 53.4600 -3.5413 280° West  Level FlightAware Approximate
09:22AM 53.4793 -3.7432 280° West  Level FlightAware Approximate
09:23AM 53.4950 -3.9467 280° West  Level FlightAware Approximate
09:24AM 53.5103 -4.1504 281° West  Level FlightAware Approximate
09:25AM 53.5202 -4.3546 281° West  Level FlightAware Approximate
09:26AM 53.5351 -4.5585 281° West  Level FlightAware Approximate
09:27AM 53.5500 -4.7615 281° West  Level FlightAware Approximate
09:28AM 53.5599 -4.9657 282° West  Level FlightAware Approximate
09:29AM 53.5769 -5.1692 282° West  Level FlightAware Approximate
09:30AM 53.5905 -5.3737 283° West  Level FlightAware Approximate
09:31AM 53.6000 -5.5783 284° West  Level FlightAware Approximate
09:32AM 53.6148 -5.7824 285° West  Level FlightAware Approximate
09:33AM 53.6274 -5.9872 288° West  Level FlightAware Approximate
09:34AM 53.6405 -6.1910 291° West  Level FlightAware Approximate
09:35AM 53.6524 -6.3960 299° West  Level FlightAware Approximate
09:36AM 53.6598 -6.6010 320° Northwest  Level FlightAware Approximate
09:37AM 53.6711 -6.8063 18° North  Level FlightAware Approximate
09:38AM 53.6820 -7.0116 61° Northeast  Level FlightAware Approximate
09:39AM 53.6926 -7.2170 74° East  Level FlightAware Approximate
09:40AM 53.7028 -7.4225 80° East  Level FlightAware Approximate
09:41AM 53.7680 -6.7530 277° West -1  Level FlightAware Direct Aircraft Datalink
10:26AM 54.0630 -17.1780 269° West -1 540 Level FlightAware Direct Aircraft Datalink
10:38AM 54.0000 -20.0000 274° West 480 552 34,000  Climbing ETMS Enhanced Traffic Management System
11:11AM 54.1170 -27.2000 267° West -1 -480 Descending FlightAware Direct Aircraft Datalink
11:56AM 53.4930 -36.5070 259° West -1 300 Level FlightAware Direct Aircraft Datalink
11:56AM 52.4209 -36.0005 266° West  Level FlightAware Approximate
11:57AM 52.3763 -36.1868 266° West  Level FlightAware Approximate
11:58AM 52.3314 -36.3727 266° West  Level FlightAware Approximate
11:59AM 52.2862 -36.5583 266° West  Level FlightAware Approximate
12:00PM 52.2407 -36.7434 267° West  Level FlightAware Approximate
12:01PM 52.1949 -36.9282 267° West  Level FlightAware Approximate
12:02PM 52.1488 -37.1126 267° West  Level FlightAware Approximate
12:03PM 52.1025 -37.2966 267° West  Level FlightAware Approximate
12:04PM 52.0558 -37.4802 267° West  Level FlightAware Approximate
12:05PM 52.0089 -37.6634 267° West  Level FlightAware Approximate
12:06PM 51.9617 -37.8463 267° West  Level FlightAware Approximate
12:07PM 51.9142 -38.0288 268° West  Level FlightAware Approximate
12:08PM 51.8664 -38.2108 268° West  Level FlightAware Approximate
12:09PM 51.8184 -38.3926 268° West  Level FlightAware Approximate
12:10PM 51.7700 -38.5739 268° West  Level FlightAware Approximate
12:11PM 51.7214 -38.7548 268° West  Level FlightAware Approximate
12:12PM 51.6725 -38.9353 269° West  Level FlightAware Approximate
12:13PM 51.6234 -39.1155 269° West  Level FlightAware Approximate
12:14PM 51.5739 -39.2952 269° West  Level FlightAware Approximate
12:15PM 51.5242 -39.4746 269° West  Level FlightAware Approximate
12:16PM 51.4742 -39.6535 270° West  Level FlightAware Approximate
12:17PM 51.4240 -39.8321 270° West  Level FlightAware Approximate
12:18PM 51.3734 -40.0103 270° West  Level FlightAware Approximate
12:19PM 51.3226 -40.1880 270° West  Level FlightAware Approximate
12:20PM 51.2716 -40.3654 271° West  Level FlightAware Approximate
12:21PM 51.2202 -40.5424 271° West  Level FlightAware Approximate
12:21PM 52.0039 -41.1294 263° West  Level FlightAware Approximate
12:23PM 51.9246 -41.3526 263° West  Level FlightAware Approximate
12:24PM 51.8634 -41.5238 264° West  Level FlightAware Approximate
12:25PM 51.8019 -41.6945 264° West  Level FlightAware Approximate
12:26PM 51.7402 -41.8648 265° West  Level FlightAware Approximate
12:27PM 51.6783 -42.0346 265° West  Level FlightAware Approximate
12:28PM 51.6161 -42.2040 266° West  Level FlightAware Approximate
12:29PM 51.5536 -42.3728 266° West  Level FlightAware Approximate
12:30PM 51.4909 -42.5412 267° West  Level FlightAware Approximate
12:31PM 51.4280 -42.7092 267° West  Level FlightAware Approximate
12:32PM 51.3648 -42.8767 268° West  Level FlightAware Approximate
12:33PM 51.3014 -43.0437 268° West  Level FlightAware Approximate
12:34PM 51.2378 -43.2103 269° West  Level FlightAware Approximate
12:35PM 51.1739 -43.3764 270° West  Level FlightAware Approximate
12:36PM 51.1097 -43.5420 270° West  Level FlightAware Approximate
12:37PM 51.0454 -43.7072 271° West  Level FlightAware Approximate
12:38PM 50.9808 -43.8719 272° West  Level FlightAware Approximate
12:39PM 50.9160 -44.0362 273° West  Level FlightAware Approximate
12:40PM 50.8509 -44.2000 274° West  Level FlightAware Approximate
12:41PM 50.7857 -44.3633 275° West  Level FlightAware Approximate
12:42PM 50.7202 -44.5262 276° West  Level FlightAware Approximate
12:43PM 50.6544 -44.6886 277° West  Level FlightAware Approximate
12:44PM 50.5885 -44.8506 278° West  Level FlightAware Approximate
12:45PM 50.5223 -45.0121 279° West  Level FlightAware Approximate
12:46PM 50.4559 -45.1732 280° West  Level FlightAware Approximate
12:47PM 50.3893 -45.3338 282° West  Level FlightAware Approximate
12:48PM 50.3224 -45.4940 283° West  Level FlightAware Approximate
12:49PM 50.2554 -45.6537 285° West  Level FlightAware Approximate
12:50PM 50.1881 -45.8130 286° West  Level FlightAware Approximate
12:51PM 50.1206 -45.9718 288° West  Level FlightAware Approximate
12:52PM 50.0529 -46.1302 290° West  Level FlightAware Approximate
12:53PM 49.9850 -46.2881 292° West  Level FlightAware Approximate
12:54PM 49.9168 -46.4456 294° West  Level FlightAware Approximate
12:55PM 49.8485 -46.6026 296° West  Level FlightAware Approximate
12:56PM 49.7799 -46.7592 298° West  Level FlightAware Approximate
12:57PM 49.7111 -46.9153 301° West  Level FlightAware Approximate
12:58PM 49.6421 -47.0710 303° West  Level FlightAware Approximate
12:59PM 49.5729 -47.2263 306° West  Level FlightAware Approximate
01:00PM 49.5036 -47.3811 308° West  Level FlightAware Approximate
01:01PM 49.4339 -47.5355 311° West  Level FlightAware Approximate
01:02PM 49.3641 -47.6894 314° West  Level FlightAware Approximate
01:03PM 49.2941 -47.8429 317° Northwest  Level FlightAware Approximate
01:04PM 49.2926 -48.0325 319° Northwest  Level FlightAware Approximate
01:05PM 49.2909 -48.2222 321° Northwest  Level FlightAware Approximate
01:06PM 49.2888 -48.4118 324° Northwest  Level FlightAware Approximate
01:07PM 49.2864 -48.6015 327° Northwest  Level FlightAware Approximate
01:08PM 49.2837 -48.7911 330° Northwest  Level FlightAware Approximate
01:08PM 50.9333 -50.3333 245° Southwest 420 483 36,000  Level Gander Center
01:09PM 50.8833 -50.5000 252° West 420 483 36,800 840 Climbing Gander Center
01:10PM 50.8667 -50.5833 247° West 420 483 37,300 660 Climbing Moncton Center
01:11PM 50.8167 -50.7667 254° West 440 506 37,900 300 Climbing Moncton Center
01:12PM 50.7833 -50.9500 247° West 440 506 38,000  Climbing Moncton Center
01:13PM 50.7333 -51.1333 253° West 440 506 38,000  Level Moncton Center
01:14PM 50.7000 -51.3000 249° West 440 506 38,000  Level Moncton Center
01:15PM 50.6500 -51.5000 249° West 440 506 38,000  Level Moncton Center
01:16PM 50.6000 -51.7000 251° West 440 506 38,000  Level Gander Center
01:17PM 50.5667 -51.8500 246° West 440 506 38,000  Level Moncton Center
01:18PM 50.5000 -52.0833 247° West 440 506 38,000  Level Gander Center
01:19PM 50.4500 -52.2667 254° West 440 506 38,000  Level Gander Center
01:20PM 50.4167 -52.4500 253° West 450 518 38,000  Level Gander Center
01:21PM 50.3833 -52.6167 249° West 450 518 38,000  Level Gander Center
01:22PM 50.3333 -52.8167 238° Southwest 450 518 38,000  Level Gander Center
01:23PM 50.2667 -52.9833 254° West 450 518 38,000  Level Gander Center
01:24PM 50.2333 -53.1667 245° Southwest 450 518 38,000  Level Gander Center
01:25PM 50.1833 -53.3333 249° West 450 518 38,000  Level Gander Center
01:26PM 50.1333 -53.5333 243° Southwest 450 518 38,000  Level Gander Center
01:27PM 50.0833 -53.6833 249° West 450 518 38,000  Level Gander Center
01:28PM 50.0333 -53.8833 254° West 450 518 38,000  Level Gander Center
01:29PM 50.0000 -54.0667 238° Southwest 450 518 38,000  Level Gander Center
01:30PM 49.9333 -54.2333 254° West 440 506 38,000  Level Gander Center
01:31PM 49.9000 -54.4167 238° Southwest 440 506 38,000  Level Gander Center
01:32PM 49.8333 -54.5833 260° West 440 506 38,000  Level Gander Center
01:33PM 49.8167 -54.7333 238° Southwest 450 518 38,000  Level Moncton Center
01:34PM 49.7500 -54.9000 247° West 450 518 38,000  Level Moncton Center
01:35PM 49.7000 -55.0833 245° Southwest 450 518 38,000  Level Moncton Center
01:36PM 49.6500 -55.2500 238° Southwest 450 518 38,000  Level Moncton Center
01:37PM 49.5833 -55.4167 256° West 450 518 38,000  Level Moncton Center
01:38PM 49.5500 -55.6167 232° Southwest 460 529 38,000  Level Moncton Center
01:39PM 49.4667 -55.7833 245° Southwest 450 518 38,000  Level Moncton Center
01:40PM 49.4167 -55.9500 248° West 450 518 38,000  Level Moncton Center
01:41PM 49.3500 -56.2000 247° West 450 518 38,000  Level Gander Center
01:42PM 49.3000 -56.3833 239° Southwest 450 518 38,000  Level Gander Center
01:43PM 49.2333 -56.5500 247° West 450 518 38,000  Level Gander Center
01:44PM 49.1833 -56.7333 236° Southwest 450 518 38,000  Level Gander Center
01:45PM 49.1167 -56.8833 243° Southwest 450 518 38,000  Level Gander Center
01:47PM 49.0333 -57.1333 243° Southwest 450 518 38,000  Level Moncton Center
01:48PM 48.9667 -57.3333 243° Southwest 450 518 38,000  Level Moncton Center
01:49PM 48.9167 -57.4833 246° West 450 518 38,000  Level Moncton Center
01:50PM 48.8667 -57.6500 235° Southwest 460 529 38,000  Level Moncton Center
01:51PM 48.7833 -57.8333 246° West 460 529 38,000  Level Moncton Center
01:52PM 48.7333 -58.0000 241° Southwest 460 529 38,000  Level Moncton Center
01:53PM 48.6667 -58.1833 243° Southwest 460 529 38,000  Level Moncton Center
01:54PM 48.6167 -58.3333 243° Southwest 460 529 38,000  Level Moncton Center
01:55PM 48.5500 -58.5333 243° Southwest 460 529 38,000  Level Moncton Center
01:56PM 48.5000 -58.6833 241° Southwest 460 529 38,000  Level Moncton Center
01:57PM 48.4333 -58.8667 246° West 460 529 38,000  Level Moncton Center
01:58PM 48.3833 -59.0333 236° Southwest 460 529 38,000  Level Moncton Center
01:59PM 48.3000 -59.2167 243° Southwest 460 529 38,000  Level Moncton Center
02:00PM 48.2500 -59.3667 241° Southwest 460 529 38,000  Level Moncton Center
02:01PM 48.1833 -59.5500 236° Southwest 460 529 38,000  Level Moncton Center
02:02PM 48.1167 -59.7000 246° West 460 529 38,000  Level Moncton Center
02:03PM 48.0667 -59.8667 242° Southwest 460 529 38,000  Level Moncton Center
02:04PM 48.0000 -60.0500 236° Southwest 450 518 38,000  Level Moncton Center
02:05PM 47.9333 -60.2000 244° Southwest 450 518 38,000  Level Moncton Center
02:06PM 47.8833 -60.3500 242° Southwest 460 529 38,000  Level Moncton Center
02:07PM 47.8167 -60.5333 230° Southwest 460 529 38,000  Level Moncton Center
02:08PM 47.7333 -60.6833 248° West 460 529 38,000  Level Moncton Center
02:09PM 47.6833 -60.8667 237° Southwest 460 529 38,000  Level Moncton Center
02:10PM 47.6167 -61.0167 237° Southwest 460 529 38,000  Level Moncton Center
02:11PM 47.5500 -61.1667 248° West 460 529 38,000  Level Moncton Center
02:12PM 47.5000 -61.3500 237° Southwest 460 529 38,000  Level Moncton Center
02:13PM 47.4333 -61.5000 237° Southwest 460 529 38,000  Level Moncton Center
02:14PM 47.3667 -61.6500 242° Southwest 450 518 38,000  Level Moncton Center
02:15PM 47.3000 -61.8333 237° Southwest 450 518 38,000  Level Moncton Center
02:16PM 47.2333 -61.9833 244° Southwest 450 518 38,000  Level Moncton Center
02:17PM 47.1833 -62.1333 240° Southwest 450 518 38,000  Level Moncton Center
02:18PM 47.1167 -62.3000 231° Southwest 450 518 38,000  Level Moncton Center
02:19PM 47.0333 -62.4500 244° Southwest 450 518 38,000  Level Moncton Center
02:20PM 46.9833 -62.6000 236° Southwest 450 518 38,000  Level Moncton Center
02:21PM 46.9000 -62.7833 237° Southwest 450 518 38,000  Level Moncton Center
02:22PM 46.8333 -62.9333 240° Southwest 450 518 38,000  Level Moncton Center
02:23PM 46.7667 -63.1000 237° Southwest 450 518 38,000  Level Moncton Center
02:24PM 46.7000 -63.2500 237° Southwest 450 518 38,000  Level Moncton Center
02:25PM 46.6333 -63.4000 246° West 450 518 38,000  Level Moncton Center
02:26PM 46.5833 -63.5667 237° Southwest 450 518 38,000  Level Moncton Center
02:27PM 46.5167 -63.7167 237° Southwest 450 518 38,000  Level Moncton Center
02:28PM 46.4500 -63.8667 237° Southwest 450 518 38,000  Level Moncton Center
02:29PM 46.3833 -64.0167 240° Southwest 450 518 38,000  Level Moncton Center
02:30PM 46.3167 -64.1833 234° Southwest 450 518 38,000  Level Moncton Center
02:31PM 46.2500 -64.3167 242° Southwest 450 518 38,000  Level Moncton Center
02:32PM 46.1833 -64.5000 234° Southwest 450 518 38,000  Level Moncton Center
02:33PM 46.1167 -64.6333 237° Southwest 450 518 38,000  Level Moncton Center
02:34PM 46.0500 -64.7833 226° Southwest 450 518 38,000  Level Moncton Center
02:35PM 45.9500 -64.9333 240° Southwest 450 518 38,000  Level Moncton Center
02:36PM 45.8833 -65.1000 234° Southwest 450 518 38,000  Level Moncton Center
02:37PM 45.8167 -65.2333 238° Southwest 450 518 38,000  Level Moncton Center
02:38PM 45.7500 -65.3833 234° Southwest 450 518 38,000  Level Moncton Center
02:39PM 45.6833 -65.5167 238° Southwest 440 506 38,000  Level Moncton Center
02:40PM 45.6167 -65.6667 235° Southwest 440 506 38,000  Level Moncton Center
02:41PM 45.5500 -65.8000 240° Southwest 440 506 38,000  Level Moncton Center
02:42PM 45.4833 -65.9667 238° Southwest 450 518 38,000  Level Moncton Center
02:43PM 45.4167 -66.1167 235° Southwest 450 518 38,000  Level Moncton Center
02:44PM 45.3500 -66.2500 232° Southwest 450 518 38,000  Level Moncton Center
02:45PM 45.2667 -66.4000 235° Southwest 450 518 38,000  Level Moncton Center
02:46PM 45.2000 -66.5333 235° Southwest 450 518 38,000  Level Moncton Center
02:47PM 45.1167 -66.7000 235° Southwest 450 518 38,000  Level Moncton Center
02:48PM 45.0500 -66.8333 235° Southwest 450 518 38,000  Level Moncton Center
02:49PM 44.9833 -66.9667 239° Southwest 450 518 38,000 -60 Level Moncton Center
02:50PM 44.9106 -67.1394 227° Southwest 456 525 37,900  Descending Boston Center
02:51PM 44.8247 -67.2703 225° Southwest 450 518 38,000  Climbing Boston Center
02:52PM 44.7344 -67.3953 227° Southwest 456 525 38,000  Level Boston Center
02:53PM 44.6581 -67.5097 224° Southwest 456 525 38,000  Level Boston Center
02:54PM 44.5672 -67.6311 226° Southwest 451 519 38,000  Level Boston Center
02:55PM 44.4806 -67.7547 224° Southwest 451 519 38,000  Level Boston Center
02:56PM 44.3897 -67.8783 225° Southwest 459 528 38,000  Level Boston Center
02:57PM 44.3008 -68.0011 225° Southwest 459 528 38,000  Level Boston Center
02:58PM 44.2136 -68.1208 224° Southwest 459 528 38,000  Level Boston Center
02:59PM 44.1261 -68.2369 224° Southwest 454 522 38,000  Level Boston Center
03:00PM 44.0386 -68.3558 226° Southwest 449 517 38,000  Level Boston Center
03:01PM 43.9533 -68.4769 224° Southwest 444 511 38,000  Level Boston Center
03:02PM 43.8594 -68.6014 224° Southwest 437 503 38,000  Level Boston Center
03:03PM 43.7736 -68.7161 224° Southwest 437 503 38,000  Level Boston Center
03:04PM 43.6858 -68.8336 225° Southwest 437 503 38,000  Level Boston Center
03:05PM 43.6017 -68.9506 222° Southwest 437 503 38,000  Level Boston Center
03:06PM 43.5256 -69.0467 224° Southwest 437 503 38,000  Level Boston Center
03:07PM 43.4392 -69.1600 224° Southwest 437 503 38,000  Level Boston Center
03:08PM 43.3547 -69.2703 224° Southwest 437 503 38,000  Level Boston Center
03:09PM 43.2683 -69.3861 223° Southwest 437 503 38,000  Level Boston Center
03:10PM 43.1836 -69.4956 224° Southwest 437 503 38,000  Level Boston Center
03:11PM 43.0989 -69.6078 223° Southwest 437 503 38,000  Level Boston Center
03:12PM 43.0119 -69.7197 224° Southwest 437 503 38,000  Level Boston Center
03:13PM 42.9289 -69.8283 224° Southwest 437 503 38,000  Level Boston Center
03:14PM 42.8439 -69.9394 224° Southwest 437 503 38,000  Level Boston Center
03:15PM 42.7628 -70.0475 224° Southwest 425 489 38,000  Level Boston Center
03:16PM 42.6817 -70.1522 224° Southwest 419 482 38,000 -60 Level Boston Center
03:17PM 42.5983 -70.2597 223° Southwest 419 482 37,900 -60 Descending Boston Center
03:18PM 42.5147 -70.3642 223° Southwest 413 475 37,900  Level Boston Center
03:19PM 42.4333 -70.4653 222° Southwest 413 475 37,900  Level Boston Center
03:20PM 42.3475 -70.5692 224° Southwest 413 475 37,900  Level Boston Center
03:21PM 42.2700 -70.6697 223° Southwest 408 470 37,900  Level Boston Center
03:22PM 42.1900 -70.7700 223° Southwest 408 470 37,900 60 Level Boston Center
03:23PM 42.0958 -70.8872 222° Southwest 418 481 38,100 600 Climbing Boston Center
03:24PM 42.0117 -70.9900 223° Southwest 418 481 39,100 840 Climbing Boston Center
03:25PM 41.9278 -71.0950 222° Southwest 418 481 39,800 360 Climbing Boston Center
03:26PM 41.8414 -71.2000 222° Southwest 418 481 39,900  Climbing Boston Center
03:27PM 41.7528 -71.3075 223° Southwest 418 481 39,900  Level Boston Center
03:28PM 41.6664 -71.4147 222° Southwest 423 487 39,900  Level Boston Center
03:29PM 41.5775 -71.5217 220° Southwest 429 494 39,900  Level Boston Center
03:30PM 41.4992 -71.6086 222° Southwest 424 488 39,900  Level Boston Center
03:31PM 41.4103 -71.7150 222° Southwest 424 488 39,900  Level Boston Center
03:33PM 41.2314 -71.9257 222° Southwest 435 501 40,000  Climbing FlightAware ADS-B
03:33PM 41.1804 -71.9861 222° Southwest 436 502 40,000  Level FlightAware ADS-B
03:34PM 41.1337 -72.0415 222° Southwest 438 504 40,000 -120 Level FlightAware ADS-B
03:34PM 41.0854 -72.0990 222° Southwest 440 506 39,900  Descending FlightAware ADS-B
03:35PM 41.0385 -72.1545 222° Southwest 441 507 40,000  Climbing FlightAware ADS-B
03:36PM 40.9853 -72.2174 222° Southwest 442 509 39,900 -120 Descending FlightAware ADS-B
03:36PM 40.9381 -72.2732 221° Southwest 443 510 39,900  Level FlightAware ADS-B
03:37PM 40.8914 -72.3270 221° Southwest 443 510 39,900 60 Level FlightAware ADS-B
03:37PM 40.8375 -72.3899 222° Southwest 444 511 40,000 60 Climbing FlightAware ADS-B
03:38PM 40.7869 -72.4493 221° Southwest 446 513 40,000  Level FlightAware ADS-B
03:38PM 40.7372 -72.5071 221° Southwest 447 514 40,000 -120 Level FlightAware ADS-B
03:39PM 40.6831 -72.5701 221° Southwest 448 516 39,900 -120 Descending FlightAware ADS-B
03:39PM 40.6318 -72.6296 221° Southwest 448 516 39,900  Level FlightAware ADS-B
03:40PM 40.5843 -72.6834 222° Southwest 448 516 39,900 60 Level FlightAware ADS-B
03:40PM 40.5290 -72.7481 221° Southwest 448 516 40,000 60 Climbing FlightAware ADS-B
03:41PM 40.4804 -72.8038 221° Southwest 448 516 40,000  Level FlightAware ADS-B
03:42PM 40.4175 -72.8755 222° Southwest 449 517 40,000  Level FlightAware ADS-B
03:42PM 40.3573 -72.9456 221° Southwest 451 519 40,000 -120 Level FlightAware ADS-B
03:43PM 40.3080 -73.0013 221° Southwest 451 519 39,900  Descending FlightAware ADS-B
03:43PM 40.2583 -73.0588 220° Southwest 451 519 40,000  Climbing FlightAware ADS-B
03:44PM 40.2055 -73.1177 222° Southwest 449 517 39,900  Descending FlightAware ADS-B
03:44PM 40.1521 -73.1799 221° Southwest 447 514 40,000  Climbing FlightAware ADS-B
03:45PM 40.0947 -73.2452 220° Southwest 445 512 39,900 -120 Descending FlightAware ADS-B
03:46PM 40.0437 -73.3014 221° Southwest 444 511 39,900  Level FlightAware ADS-B
03:46PM 39.9962 -73.3557 221° Southwest 442 509 39,900  Level FlightAware ADS-B
03:47PM 39.9475 -73.4114 220° Southwest 440 506 39,900 60 Level FlightAware ADS-B
03:47PM 39.9003 -73.4633 221° Southwest 439 505 40,000 60 Climbing FlightAware ADS-B
03:48PM 39.8536 -73.5167 220° Southwest 437 503 40,000  Level FlightAware ADS-B
03:48PM 39.8067 -73.5683 221° Southwest 437 503 40,000  Level FlightAware ADS-B
03:49PM 39.7576 -73.6230 219° Southwest 436 502 40,000  Level FlightAware ADS-B
03:49PM 39.7217 -73.6609 216° Southwest 438 504 40,000  Level FlightAware ADS-B
03:50PM 39.6718 -73.7088 215° Southwest 438 504 40,000  Level FlightAware ADS-B
03:50PM 39.6147 -73.7612 216° Southwest 437 503 40,000 -120 Level FlightAware ADS-B
03:51PM 39.5610 -73.8124 217° Southwest 435 501 39,900  Descending FlightAware ADS-B
03:51PM 39.5090 -73.8639 217° Southwest 434 499 40,000 60 Climbing FlightAware ADS-B
03:52PM 39.4593 -73.9121 217° Southwest 434 499 40,000 -120 Level FlightAware ADS-B
03:52PM 39.4111 -73.9587 216° Southwest 432 497 39,900  Descending FlightAware ADS-B
03:53PM 39.3618 -74.0051 217° Southwest 432 497 40,000 60 Climbing FlightAware ADS-B
03:53PM 39.3140 -74.0514 217° Southwest 432 497 40,000  Level FlightAware ADS-B
03:54PM 39.2654 -74.0990 216° Southwest 433 498 40,000 -120 Level FlightAware ADS-B
03:55PM 39.1846 -74.1744 217° Southwest 435 501 39,900  Descending FlightAware ADS-B
03:55PM 39.1358 -74.2222 216° Southwest 435 501 40,000 60 Climbing FlightAware ADS-B
03:56PM 39.0863 -74.2683 216° Southwest 435 501 40,000  Level FlightAware ADS-B
03:56PM 39.0373 -74.3146 217° Southwest 436 502 40,000 -120 Level FlightAware ADS-B
03:57PM 38.9728 -74.3760 217° Southwest 436 502 39,900  Descending FlightAware ADS-B
03:57PM 38.9178 -74.4283 216° Southwest 435 501 40,000 60 Climbing FlightAware ADS-B
03:58PM 38.8689 -74.4740 216° Southwest 436 502 40,000  Level FlightAware ADS-B
03:58PM 38.8193 -74.5197 216° Southwest 435 501 40,000  Level FlightAware ADS-B
03:59PM 38.7680 -74.5681 216° Southwest 434 499 40,000  Level FlightAware ADS-B
03:59PM 38.7190 -74.6135 216° Southwest 434 499 40,000  Level FlightAware ADS-B
04:00PM 38.6679 -74.6617 216° Southwest 432 497 40,000  Level FlightAware ADS-B
04:00PM 38.6178 -74.7081 216° Southwest 430 495 40,000 -120 Level FlightAware ADS-B
04:01PM 38.5689 -74.7530 216° Southwest 430 495 39,900 -120 Descending FlightAware ADS-B
04:01PM 38.5206 -74.7975 216° Southwest 427 491 39,900 60 Level FlightAware ADS-B
04:02PM 38.4713 -74.8433 216° Southwest 426 490 40,000 60 Climbing FlightAware ADS-B
04:02PM 38.4217 -74.8889 216° Southwest 426 490 40,000 -120 Level FlightAware ADS-B
04:03PM 38.3448 -74.9595 215° Southwest 426 490 39,900  Descending FlightAware ADS-B
04:04PM 38.2929 -75.0065 216° Southwest 426 490 40,000  Climbing FlightAware ADS-B
04:04PM 38.2435 -75.0518 216° Southwest 426 490 39,900 -120 Descending FlightAware ADS-B
04:05PM 38.1902 -75.1002 216° Southwest 427 491 39,900 60 Level FlightAware ADS-B
04:06PM 38.1015 -75.1820 215° Southwest 427 491 40,000  Climbing FlightAware ADS-B
04:06PM 38.0526 -75.2259 216° Southwest 428 493 39,900  Descending FlightAware ADS-B
04:07PM 38.0014 -75.2729 215° Southwest 429 494 40,000 60 Climbing FlightAware ADS-B
04:07PM 37.9444 -75.3243 215° Southwest 432 497 40,000  Level FlightAware ADS-B
04:08PM 37.8889 -75.3742 216° Southwest 432 497 40,000  Level FlightAware ADS-B
04:09PM 37.7505 -75.4994 216° Southwest 432 497 40,000  Level FlightAware ADS-B
04:10PM 37.6952 -75.5495 215° Southwest 436 502 40,000 -120 Level FlightAware ADS-B
04:11PM 37.6379 -75.5997 216° Southwest 438 504 39,900  Descending FlightAware ADS-B
04:11PM 37.5845 -75.6485 215° Southwest 438 504 40,000  Climbing FlightAware ADS-B
04:12PM 37.5305 -75.6957 215° Southwest 438 504 39,900  Descending FlightAware ADS-B
04:12PM 37.4674 -75.7517 221° Southwest 438 504 40,000  Climbing FlightAware ADS-B
04:13PM 37.4389 -75.7828 215° Southwest 437 503 39,900 -120 Descending Washington Center
04:14PM 37.3364 -75.8739 214° Southwest 437 503 39,900  Level Washington Center
04:15PM 37.1579 -76.0268 215° Southwest 438 504 40,000  Climbing FlightAware ADS-B
04:16PM 37.1078 -76.0704 215° Southwest 437 503 39,900 -120 Descending FlightAware ADS-B
04:16PM 37.0557 -76.1169 215° Southwest 435 501 39,900 60 Level FlightAware ADS-B
04:17PM 37.0054 -76.1604 215° Southwest 434 499 40,000  Climbing FlightAware ADS-B
04:18PM 36.9147 -76.2396 215° Southwest 435 501 39,900 -120 Descending FlightAware ADS-B
04:19PM 36.8450 -76.3016 214° Southwest 435 501 39,900  Level FlightAware ADS-B
04:20PM 36.7500 -76.3825 216° Southwest 443 510 40,000  Climbing Washington Center
04:21PM 36.6408 -76.4825 215° Southwest 443 510 39,900 -60 Descending Washington Center
04:22PM 36.5444 -76.5667 214° Southwest 443 510 39,900  Level Washington Center
04:23PM 36.4478 -76.6481 215° Southwest 437 503 39,900  Level Washington Center
04:24PM 36.3508 -76.7319 215° Southwest 427 491 39,900  Level Washington Center
04:25PM 36.2542 -76.8156 214° Southwest 432 497 39,900  Level Washington Center
04:26PM 36.1553 -76.8989 214° Southwest 432 497 39,900  Level Washington Center
04:27PM 36.0561 -76.9819 216° Southwest 432 497 39,900  Level Washington Center
04:28PM 35.9614 -77.0675 219° Southwest 432 497 39,900  Level Washington Center
04:29PM 35.8683 -77.1606 220° Southwest 432 497 39,900  Level Washington Center
04:30PM 35.7772 -77.2536 220° Southwest 432 497 39,900  Level Washington Center
04:31PM 35.6842 -77.3489 219° Southwest 432 497 39,900  Level Washington Center
04:32PM 35.5908 -77.4414 219° Southwest 432 497 39,900  Level Washington Center
04:33PM 35.4978 -77.5336 220° Southwest 432 497 39,900  Level Washington Center
04:34PM 35.4044 -77.6281 219° Southwest 432 497 39,900  Level Washington Center
04:35PM 35.3236 -77.7075 219° Southwest 432 497 39,900  Level Washington Center
04:36PM 35.2322 -77.7992 219° Southwest 432 497 39,900  Level Washington Center
04:37PM 35.1386 -77.8906 219° Southwest 432 497 39,900  Level Washington Center
04:38PM 35.0494 -77.9794 218° Southwest 425 489 39,900  Level Washington Center
04:39PM 34.9494 -78.0753 220° Southwest 430 495 39,900  Level Washington Center
04:40PM 34.8597 -78.1661 220° Southwest 425 489 39,900  Level Washington Center
04:41PM 34.7808 -78.2472 220° Southwest 425 489 39,900  Level Washington Center
04:42PM 34.6933 -78.3353 218° Southwest 415 478 39,900  Level Washington Center
04:42PM 34.6203 -78.4044 216° Southwest 417 480 39,900  Level Jacksonville Center
04:43PM 34.5150 -78.4981 222° Southwest 422 486 39,900  Level Jacksonville Center
04:44PM 34.4386 -78.5825 219° Southwest 428 493 39,900  Level Jacksonville Center
04:45PM 34.3478 -78.6700 227° Southwest 423 487 39,900  Level Jacksonville Center
04:46PM 34.2697 -78.7719 229° Southwest 417 480 39,900  Level Jacksonville Center
04:47PM 34.1919 -78.8808 229° Southwest 417 480 39,900  Level Jacksonville Center
04:48PM 34.1139 -78.9875 223° Southwest 422 486 39,900  Level Jacksonville Center
04:49PM 34.0292 -79.0839 224° Southwest 422 486 39,900  Level Jacksonville Center
04:50PM 33.9425 -79.1853 224° Southwest 428 493 39,900  Level Jacksonville Center
04:51PM 33.8597 -79.2814 221° Southwest 428 493 39,900  Level Jacksonville Center
04:52PM 33.7686 -79.3750 212° Southwest 428 493 39,900  Level Jacksonville Center
04:53PM 33.6706 -79.4486 212° Southwest 428 493 39,900  Level Jacksonville Center
04:54PM 33.5661 -79.5275 213° Southwest 433 498 39,900  Level Jacksonville Center
04:55PM 33.4639 -79.6061 213° Southwest 438 504 39,900  Level Jacksonville Center
04:56PM 33.3636 -79.6844 213° Southwest 438 504 39,900  Level Jacksonville Center
04:57PM 33.2614 -79.7628 211° Southwest 438 504 39,900  Level Jacksonville Center
04:58PM 33.1506 -79.8433 212° Southwest 438 504 39,900  Level Jacksonville Center
04:59PM 33.0481 -79.9189 212° Southwest 438 504 39,900  Level Jacksonville Center
05:00PM 32.9456 -79.9964 212° Southwest 433 498 39,900  Level Jacksonville Center
05:01PM 32.8408 -80.0739 212° Southwest 438 504 39,900  Level Jacksonville Center
05:02PM 32.7400 -80.1486 212° Southwest 438 504 39,900  Level Jacksonville Center
05:03PM 32.6375 -80.2258 212° Southwest 443 510 39,900  Level Jacksonville Center
05:04PM 32.5367 -80.3003 212° Southwest 438 504 39,900  Level Jacksonville Center
05:05PM 32.4358 -80.3744 220° Southwest 433 498 39,900 -480 Level Jacksonville Center
05:06PM 32.3478 -80.4631 228° Southwest 417 480 39,000 -1,020 Descending Jacksonville Center
05:07PM 32.2683 -80.5683 228° Southwest 423 487 37,900 -600 Descending Jacksonville Center
05:08PM 32.1889 -80.6733 230° Southwest 435 501 37,900  Level Jacksonville Center
05:09PM 32.1133 -80.7808 213° Southwest 440 506 38,000  Climbing Jacksonville Center
05:10PM 32.0125 -80.8589 191° South 433 498 38,000 -60 Level Jacksonville Center
05:11PM 31.9022 -80.8833 190° South 440 506 37,900 -780 Descending Jacksonville Center
05:12PM 31.7669 -80.9108 191° South 454 522 36,500 -1,200 Descending Jacksonville Center
05:13PM 31.6503 -80.9378 190° South 439 505 35,500 -1,020 Descending Jacksonville Center
05:14PM 31.5422 -80.9594 190° South 439 505 34,500 -780 Descending Jacksonville Center
05:15PM 31.4131 -80.9864 190° South 439 505 34,000 -300 Descending Jacksonville Center
05:16PM 31.3069 -81.0081 191° South 433 498 33,900 -60 Descending Jacksonville Center
05:17PM 31.1883 -81.0347 189° South 433 498 33,900  Level Jacksonville Center
05:18PM 31.0656 -81.0567 193° South 439 505 33,900  Level Jacksonville Center
05:19PM 30.9511 -81.0878 190° South 439 505 33,900  Level Jacksonville Center
05:20PM 30.8283 -81.1119 191° South 439 505 33,900  Level Jacksonville Center
05:21PM 30.7075 -81.1383 186° South 444 511 33,900 -600 Level Jacksonville Center
05:22PM 30.5761 -81.1531 178° South 444 511 32,700 -1,320 Descending Jacksonville Center
05:23PM 30.4508 -81.1481 178° South 444 511 31,300 -1,380 Descending Jacksonville Center
05:24PM 30.3297 -81.1431 179° South 444 511 30,000 -1,200 Descending Jacksonville Center
05:25PM 30.2044 -81.1403 180° South 444 511 28,900 -1,080 Descending Jacksonville Center
05:26PM 30.0811 -81.1403 178° South 444 511 27,900 -960 Descending Jacksonville Center
05:27PM 29.9600 -81.1353 179° South 438 504 27,000 -1,500 Descending Jacksonville Center
05:28PM 29.8453 -81.1325 179° South 433 498 25,000 -2,340 Descending Jacksonville Center
05:29PM 29.7367 -81.1297 179° South 413 475 22,400 -2,280 Descending Jacksonville Center
05:30PM 29.6258 -81.1269 179° South 401 461 20,500 -1,800 Descending Jacksonville Center
05:31PM 29.5194 -81.1242 178° South 396 456 18,900 6,780 Descending Jacksonville Center
05:32PM 29.4192 -81.1211 177° South 381 438 34,000 -1,800 Climbing Jacksonville Center
05:33PM 29.3189 -81.1158 180° South 371 427 15,400 -10,260 Descending Jacksonville Center
05:34PM 29.2228 -81.1153 174° South 360 414 13,500 -1,740 Descending Jacksonville Center
05:35PM 29.1267 -81.1028 175° South 355 409 12,000 -780 Descending Jacksonville Center
05:36PM 29.0411 -81.0947 172° South 335 386 12,000  Level Jacksonville Center
05:37PM 28.9572 -81.0819 172° South 321 369 12,000 -600 Level Jacksonville Center
05:38PM 28.8736 -81.0692 167° South 310 357 10,900 -1,320 Descending Jacksonville Center
05:39PM 28.8000 -81.0500 204° Southwest 290 334 9,700 -1,920 Descending Orlando TRACON
05:40PM 28.7333 -81.0833 263° West 284 327 7,100 -1,740 Descending Orlando TRACON
05:41PM 28.7247 -81.1692 262° West 216 249 6,000 -840 Descending Jacksonville Center
05:42PM 28.7153 -81.2472 223° Southwest 223 257 5,500 -600 Descending Jacksonville Center
05:43PM 28.6761 -81.2883 178° South 206 237 4,800 -1,080 Descending Jacksonville Center
05:45PM 28.5667 -81.2833 180° South 188 216 2,600 -1,140 Descending Orlando TRACON
05:46PM 28.5167 -81.2833 180° South 165 190 1,600 -900 Descending Orlando TRACON
05:47PM 28.4833 -81.2833 180° South 149 171 800 -840 Descending Orlando TRACON